Time;durP1;ratioP1;P1;durP2;ratioP2;P2;SDS_P1;SDS_P2;PMS_P1;PMS_P2;Temp;Humidity;BMP_temperature;BMP_pressure;BME280_temperature;BME280_humidity;BME280_pressure;Samples;Min_cycle;Max_cycle;Signal;HPM_P1;HPM_P2
2021/08/26 00:07:38;;;;;;;13.48;9.05;;;;;;;18.75;100.00;96123.78;5001062;28;20070;-64
2021/08/26 00:10:09;;;;;;;13.10;8.98;;;;;;;17.98;100.00;96125.00;5004439;28;20065;-62
2021/08/26 00:12:38;;;;;;;12.93;8.90;;;;;;;18.31;100.00;96125.13;4997517;28;20521;-62
2021/08/26 00:15:07;;;;;;;15.93;8.20;;;;;;;17.76;100.00;96122.44;5000286;28;20062;-63
2021/08/26 00:17:37;;;;;;;14.27;9.07;;;;;;;17.70;100.00;96117.84;5011548;28;20149;-64
2021/08/26 00:20:07;;;;;;;15.05;9.27;;;;;;;18.02;100.00;96116.38;4984064;28;20039;-64
2021/08/26 00:22:36;;;;;;;15.20;9.65;;;;;;;18.24;100.00;96105.59;5004429;28;20088;-63
2021/08/26 00:25:05;;;;;;;12.82;8.52;;;;;;;18.32;100.00;96107.25;5003444;28;20531;-64
2021/08/26 00:27:34;;;;;;;16.38;9.35;;;;;;;18.32;100.00;96108.06;4999254;28;20112;-63
2021/08/26 00:30:03;;;;;;;13.57;8.63;;;;;;;17.95;100.00;96098.72;5002245;28;20058;-66
2021/08/26 00:32:32;;;;;;;14.00;8.55;;;;;;;17.87;100.00;96097.03;5002700;28;20068;-64
2021/08/26 00:35:01;;;;;;;12.70;8.68;;;;;;;17.97;100.00;96086.00;5001413;28;20069;-63
2021/08/26 00:37:30;;;;;;;14.07;8.82;;;;;;;17.55;100.00;96090.50;4997311;28;20077;-66
2021/08/26 00:39:58;;;;;;;14.20;8.95;;;;;;;18.10;100.00;96086.06;5002754;28;20074;-66
2021/08/26 00:42:27;;;;;;;15.57;8.93;;;;;;;17.81;100.00;96086.34;5003022;28;20062;-66
2021/08/26 00:44:55;;;;;;;12.70;8.52;;;;;;;17.70;100.00;96072.53;5002333;28;20069;-65
2021/08/26 00:47:24;;;;;;;14.98;9.20;;;;;;;17.32;100.00;96070.28;5001261;28;20100;-66
2021/08/26 00:49:54;;;;;;;15.40;9.45;;;;;;;17.58;100.00;96068.75;5005252;28;20096;-66
2021/08/26 00:52:24;;;;;;;13.57;9.27;;;;;;;17.25;100.00;96055.28;5001175;28;20062;-66
2021/08/26 00:54:53;;;;;;;14.70;8.63;;;;;;;17.61;100.00;96063.03;5005873;28;20635;-65
2021/08/26 00:57:22;;;;;;;16.13;8.85;;;;;;;17.34;100.00;96062.06;5001971;28;20070;-65
2021/08/26 00:59:51;;;;;;;12.50;8.75;;;;;;;17.59;100.00;96058.94;5006238;28;20076;-63
2021/08/26 01:02:25;;;;;;;12.82;8.60;;;;;;;17.64;100.00;96057.31;5000948;28;20077;-64
2021/08/26 01:04:59;;;;;;;14.45;8.43;;;;;;;17.33;100.00;96057.78;5003913;28;20537;-64
2021/08/26 01:07:31;;;;;;;12.05;8.07;;;;;;;17.84;100.00;96060.09;5000390;28;20065;-64
2021/08/26 01:10:04;;;;;;;12.95;8.45;;;;;;;18.01;100.00;96060.56;5003218;28;20073;-66
2021/08/26 01:12:33;;;;;;;15.23;8.88;;;;;;;17.91;100.00;96060.94;5003735;28;20728;-66
2021/08/26 01:15:01;;;;;;;12.35;8.48;;;;;;;17.90;100.00;96061.16;5002120;28;20088;-65
2021/08/26 01:17:31;;;;;;;13.95;8.90;;;;;;;17.47;100.00;96058.66;5004685;28;20061;-66
2021/08/26 01:20:01;;;;;;;16.67;8.82;;;;;;;17.27;100.00;96061.22;5005480;28;20333;-65
2021/08/26 01:22:32;;;;;;;12.43;8.60;;;;;;;17.68;100.00;96057.72;5000803;28;20070;-65
2021/08/26 01:25:04;;;;;;;14.30;8.35;;;;;;;17.33;100.00;96053.25;5002619;28;20082;-66
2021/08/26 01:27:36;;;;;;;12.13;8.48;;;;;;;17.49;100.00;96059.31;5003600;28;20065;-65
2021/08/26 01:30:05;;;;;;;12.65;8.35;;;;;;;17.17;100.00;96050.94;5001985;28;20085;-65
2021/08/26 01:32:34;;;;;;;15.75;7.85;;;;;;;17.32;100.00;96051.63;5003214;28;20084;-64
2021/08/26 01:35:03;;;;;;;14.25;8.15;;;;;;;17.52;100.00;96050.91;5006863;28;20598;-66
2021/08/26 01:37:32;;;;;;;12.75;7.82;;;;;;;16.88;100.00;96043.97;5003581;28;20562;-66
2021/08/26 01:40:00;;;;;;;15.68;8.45;;;;;;;17.63;100.00;96044.19;5000988;28;20076;-65
2021/08/26 01:42:29;;;;;;;12.82;7.78;;;;;;;16.93;100.00;96043.38;5003452;28;20510;-63
2021/08/26 01:44:59;;;;;;;14.05;7.95;;;;;;;17.38;100.00;96038.50;5001561;28;20068;-65
2021/08/26 01:47:27;;;;;;;11.43;7.70;;;;;;;17.50;100.00;96045.75;5005365;28;20085;-65
2021/08/26 01:49:56;;;;;;;13.32;7.82;;;;;;;17.37;100.00;96039.53;5007210;28;20489;-65
2021/08/26 01:52:25;;;;;;;12.90;7.95;;;;;;;17.15;100.00;96041.47;5009352;28;20078;-65
2021/08/26 01:54:55;;;;;;;10.70;6.85;;;;;;;17.04;100.00;96035.69;4986282;28;20062;-64
2021/08/26 01:57:24;;;;;;;12.53;7.73;;;;;;;17.07;100.00;96035.28;4978862;28;20089;-64
2021/08/26 02:00:14;;;;;;;13.45;8.18;;;;;;;16.81;100.00;96035.94;4986940;28;20053;-67
2021/08/26 02:02:43;;;;;;;12.27;7.38;;;;;;;17.21;100.00;96040.69;5006248;28;20436;-66
2021/08/26 02:05:12;;;;;;;11.57;7.88;;;;;;;17.30;100.00;96039.50;5002515;28;20078;-65
2021/08/26 02:07:45;;;;;;;12.65;8.07;;;;;;;17.50;100.00;96035.09;5003240;28;20066;-66
2021/08/26 02:10:13;;;;;;;12.15;7.72;;;;;;;17.11;100.00;96034.91;4998671;28;20070;-66
2021/08/26 02:12:42;;;;;;;12.75;8.35;;;;;;;17.42;100.00;96026.47;5006824;28;20069;-66
2021/08/26 02:15:30;;;;;;;10.82;7.03;;;;;;;17.43;100.00;96025.44;5007012;28;20548;-64
2021/08/26 02:18:03;;;;;;;16.65;7.85;;;;;;;17.46;100.00;96033.84;5004371;28;20066;-64
2021/08/26 02:20:31;;;;;;;14.30;8.38;;;;;;;17.50;100.00;96026.28;5004637;28;20074;-64
2021/08/26 02:22:59;;;;;;;13.35;7.90;;;;;;;17.89;100.00;96020.28;5004441;28;20097;-64
2021/08/26 02:25:28;;;;;;;13.07;8.10;;;;;;;17.93;100.00;96018.06;5004763;28;20070;-64
2021/08/26 02:27:56;;;;;;;12.90;7.80;;;;;;;17.17;100.00;96020.78;5004473;28;20069;-64
2021/08/26 02:30:25;;;;;;;11.15;7.72;;;;;;;17.67;100.00;96021.44;5000916;28;20073;-64
2021/08/26 02:32:55;;;;;;;15.13;7.97;;;;;;;17.74;100.00;96019.59;5005397;28;20504;-64
2021/08/26 02:35:23;;;;;;;12.95;8.10;;;;;;;17.37;100.00;96011.03;5003113;28;20129;-64
2021/08/26 02:37:51;;;;;;;12.32;8.43;;;;;;;18.01;100.00;96015.19;5002916;28;20065;-64
2021/08/26 02:40:20;;;;;;;12.55;7.85;;;;;;;17.60;100.00;96007.25;5003300;28;20078;-64
2021/08/26 02:42:48;;;;;;;11.88;8.02;;;;;;;17.23;100.00;96010.16;4999757;28;20176;-63
2021/08/26 02:45:17;;;;;;;14.20;8.48;;;;;;;17.64;100.00;96014.66;5001406;28;20073;-65
2021/08/26 02:47:46;;;;;;;14.38;7.63;;;;;;;17.52;100.00;96000.25;5001365;28;20089;-65
2021/08/26 02:50:15;;;;;;;12.23;8.00;;;;;;;17.76;100.00;95999.75;5007533;28;20485;-65
2021/08/26 02:52:44;;;;;;;10.70;7.50;;;;;;;17.55;100.00;95994.53;5002251;28;20068;-64
2021/08/26 02:55:12;;;;;;;12.93;8.10;;;;;;;17.07;100.00;95997.19;4993467;28;20459;-67
2021/08/26 02:57:40;;;;;;;13.57;8.27;;;;;;;17.02;100.00;95999.59;5001605;28;22280;-65
2021/08/26 03:00:10;;;;;;;10.32;6.82;;;;;;;16.52;100.00;95986.34;5007947;28;20065;-65
2021/08/26 03:02:39;;;;;;;11.27;7.15;;;;;;;16.88;100.00;95982.72;4987023;28;20089;-65
2021/08/26 03:05:08;;;;;;;12.90;7.82;;;;;;;16.55;100.00;95985.09;5009895;28;20092;-64
2021/08/26 03:07:38;;;;;;;14.20;7.88;;;;;;;16.84;100.00;95968.16;5006795;28;20077;-65
2021/08/26 03:10:08;;;;;;;11.27;7.63;;;;;;;16.96;100.00;95968.41;5007096;28;20076;-64
2021/08/26 03:12:36;;;;;;;10.93;6.90;;;;;;;16.47;100.00;95962.13;5004905;28;20465;-64
2021/08/26 03:15:05;;;;;;;11.70;7.93;;;;;;;17.16;100.00;95957.84;5002243;28;20072;-63
2021/08/26 03:17:34;;;;;;;11.45;7.18;;;;;;;16.74;100.00;95957.00;5007204;28;20472;-65
2021/08/26 03:20:02;;;;;;;13.05;8.25;;;;;;;17.18;100.00;95953.97;5010772;28;20084;-64
2021/08/26 03:22:30;;;;;;;14.50;8.43;;;;;;;16.95;100.00;95946.28;5010586;28;20076;-65
2021/08/26 03:25:00;;;;;;;13.48;8.23;;;;;;;16.77;100.00;95943.31;4997229;28;20069;-65
2021/08/26 03:27:29;;;;;;;11.45;8.07;;;;;;;16.87;100.00;95945.63;4994734;28;20053;-66
2021/08/26 03:29:57;;;;;;;12.20;7.90;;;;;;;16.74;100.00;95946.34;5005086;28;20054;-64
2021/08/26 03:32:26;;;;;;;13.70;7.80;;;;;;;17.09;100.00;95945.31;5006167;28;20460;-65
2021/08/26 03:34:55;;;;;;;13.75;8.48;;;;;;;17.22;100.00;95943.75;5005136;28;20038;-65
2021/08/26 03:37:24;;;;;;;13.43;8.45;;;;;;;17.00;100.00;95943.03;5005431;28;20069;-65
2021/08/26 03:39:52;;;;;;;11.45;7.97;;;;;;;17.03;100.00;95939.97;5011649;28;20102;-65
2021/08/26 03:42:22;;;;;;;13.98;8.60;;;;;;;16.89;100.00;95946.25;5010044;28;20073;-66
2021/08/26 03:44:50;;;;;;;13.38;8.10;;;;;;;16.97;100.00;95938.94;5008733;28;20088;-65
2021/08/26 03:47:19;;;;;;;12.63;8.65;;;;;;;16.69;100.00;95940.75;5009893;28;20085;-65
2021/08/26 03:49:50;;;;;;;12.90;8.70;;;;;;;16.48;100.00;95945.16;5004867;28;20038;-64
2021/08/26 03:52:18;;;;;;;12.80;8.27;;;;;;;16.25;100.00;95944.56;5007214;28;20461;-65
2021/08/26 03:54:46;;;;;;;11.93;7.90;;;;;;;16.33;100.00;95939.09;5002929;28;20089;-65
2021/08/26 03:57:15;;;;;;;12.57;8.30;;;;;;;16.59;100.00;95938.47;5006184;28;20066;-65
2021/08/26 03:59:45;;;;;;;12.15;8.15;;;;;;;16.20;100.00;95937.16;5003203;28;20068;-65
2021/08/26 04:02:13;;;;;;;12.50;8.43;;;;;;;16.36;100.00;95936.88;5008021;28;20670;-66
2021/08/26 04:04:41;;;;;;;14.27;8.23;;;;;;;16.41;100.00;95933.63;4999850;28;20069;-65
2021/08/26 04:07:11;;;;;;;12.80;8.27;;;;;;;16.53;100.00;95936.59;5015679;28;20081;-65
2021/08/26 04:09:39;;;;;;;15.10;8.80;;;;;;;16.54;100.00;95941.69;4997499;28;20081;-65
2021/08/26 04:12:08;;;;;;;12.75;8.48;;;;;;;16.06;100.00;95946.03;4987868;28;20077;-66
2021/08/26 04:14:37;;;;;;;11.68;7.68;;;;;;;16.03;100.00;95943.75;5002851;28;20088;-65
2021/08/26 04:17:07;;;;;;;12.35;8.30;;;;;;;16.12;100.00;95953.25;5010455;28;20089;-66
2021/08/26 04:19:35;;;;;;;14.20;8.73;;;;;;;16.21;100.00;95949.44;5004272;28;20089;-65
2021/08/26 04:22:04;;;;;;;12.82;8.25;;;;;;;16.09;100.00;95943.00;5007620;28;20060;-65
2021/08/26 04:24:33;;;;;;;13.45;8.23;;;;;;;16.49;100.00;95938.81;5016902;28;20349;-65
2021/08/26 04:27:19;;;;;;;12.88;8.55;;;;;;;16.34;100.00;95933.59;5008998;28;20052;-64
2021/08/26 04:29:48;;;;;;;14.63;8.25;;;;;;;16.18;100.00;95928.56;5004865;28;20054;-65
2021/08/26 04:32:18;;;;;;;12.88;9.05;;;;;;;16.86;100.00;95928.81;5007064;28;20089;-64
2021/08/26 04:34:46;;;;;;;13.13;8.90;;;;;;;16.70;100.00;95934.44;5004787;28;20471;-65
2021/08/26 04:37:14;;;;;;;14.40;8.50;;;;;;;16.98;100.00;95929.91;5007041;28;20492;-65
2021/08/26 04:39:43;;;;;;;13.18;8.82;;;;;;;16.88;100.00;95929.44;5000614;28;20070;-65
2021/08/26 04:42:11;;;;;;;14.13;9.20;;;;;;;17.13;100.00;95927.09;5004464;28;20528;-65
2021/08/26 04:44:39;;;;;;;16.23;9.88;;;;;;;17.26;100.00;95929.81;5005873;28;20082;-65
2021/08/26 04:47:08;;;;;;;13.00;8.68;;;;;;;17.25;100.00;95930.84;5007069;28;20503;-65
2021/08/26 04:49:37;;;;;;;12.07;8.45;;;;;;;17.03;100.00;95929.31;5009211;28;20061;-65
2021/08/26 04:52:06;;;;;;;12.57;8.90;;;;;;;16.93;100.00;95935.03;4987865;28;20081;-64
2021/08/26 04:54:34;;;;;;;13.85;8.95;;;;;;;17.05;100.00;95933.41;4986368;28;20517;-65
2021/08/26 04:57:03;;;;;;;14.60;9.02;;;;;;;17.38;100.00;95923.91;4991035;28;20060;-65
2021/08/26 04:59:31;;;;;;;15.48;8.60;;;;;;;16.96;100.00;95926.59;5011047;28;20081;-66
2021/08/26 05:02:00;;;;;;;14.55;9.15;;;;;;;16.99;100.00;95920.88;4999937;28;20081;-66
2021/08/26 05:04:29;;;;;;;12.98;8.80;;;;;;;17.07;100.00;95928.72;4990865;28;20070;-65
2021/08/26 05:06:59;;;;;;;12.02;8.23;;;;;;;17.33;100.00;95922.66;4984616;28;20070;-66
2021/08/26 05:09:27;;;;;;;14.97;9.33;;;;;;;17.61;100.00;95929.72;4993438;28;20076;-66
2021/08/26 05:11:58;;;;;;;13.55;8.23;;;;;;;17.22;100.00;95928.56;5010225;28;20068;-65
2021/08/26 05:14:27;;;;;;;13.07;8.20;;;;;;;17.33;100.00;95920.00;5009019;28;20090;-65
2021/08/26 05:16:57;;;;;;;12.83;8.57;;;;;;;17.39;100.00;95918.38;5007979;28;20065;-65
2021/08/26 05:19:25;;;;;;;13.15;8.45;;;;;;;17.43;100.00;95913.47;5007755;28;20546;-65
2021/08/26 05:21:53;;;;;;;13.27;8.63;;;;;;;17.46;100.00;95921.06;5004575;28;20077;-65
2021/08/26 05:24:23;;;;;;;12.73;8.18;;;;;;;17.55;100.00;95917.22;5002087;28;20081;-65
2021/08/26 05:26:52;;;;;;;12.40;8.20;;;;;;;17.61;100.00;95916.38;5004573;28;20532;-64
2021/08/26 05:29:20;;;;;;;13.70;8.27;;;;;;;17.72;100.00;95918.47;5008341;28;20523;-66
2021/08/26 05:31:49;;;;;;;13.65;8.60;;;;;;;17.36;100.00;95921.44;4999213;28;20070;-65
2021/08/26 05:34:17;;;;;;;12.60;8.25;;;;;;;17.33;100.00;95924.50;5001978;28;20077;-64
2021/08/26 05:36:46;;;;;;;14.43;8.77;;;;;;;17.41;100.00;95923.50;5003833;28;20053;-65
2021/08/26 05:39:14;;;;;;;12.32;8.65;;;;;;;17.89;100.00;95926.91;5003176;28;20536;-66
2021/08/26 05:41:45;;;;;;;12.75;8.45;;;;;;;17.62;100.00;95934.03;5005046;28;20073;-63
2021/08/26 05:44:14;;;;;;;;;;;;;;;17.59;100.00;95934.44;5005231;28;20373;-65
2021/08/26 05:46:42;;;;;;;13.70;8.88;;;;;;;17.78;100.00;95935.53;5005385;28;19940;-65
2021/08/26 05:49:10;;;;;;;13.52;8.45;;;;;;;17.66;100.00;95929.94;5003174;28;20065;-65
2021/08/26 05:51:39;;;;;;;12.38;8.13;;;;;;;17.56;100.00;95929.50;5004647;28;20061;-65
2021/08/26 05:54:07;;;;;;;13.55;8.20;;;;;;;17.67;100.00;95931.59;5001646;28;20076;-65
2021/08/26 05:56:36;;;;;;;14.38;8.93;;;;;;;17.69;100.00;95937.53;5014374;28;20083;-64
2021/08/26 05:59:06;;;;;;;13.20;8.75;;;;;;;17.58;100.00;95934.63;5008990;28;20073;-65
2021/08/26 06:01:34;;;;;;;12.33;8.40;;;;;;;17.32;100.00;95930.88;5011979;28;20070;-66
2021/08/26 06:04:03;;;;;;;14.85;8.90;;;;;;;17.98;100.00;95923.03;4997144;28;20489;-65
2021/08/26 06:06:31;;;;;;;15.43;8.77;;;;;;;17.68;100.00;95927.06;5003514;28;20066;-65
2021/08/26 06:09:00;;;;;;;12.65;8.50;;;;;;;17.91;100.00;95918.72;5003827;28;20074;-66
2021/08/26 06:11:28;;;;;;;12.43;8.77;;;;;;;18.11;100.00;95914.22;5008565;28;20089;-65
2021/08/26 06:13:56;;;;;;;12.85;8.23;;;;;;;17.65;100.00;95930.13;5004163;28;20567;-64
2021/08/26 06:16:26;;;;;;;17.55;8.80;;;;;;;17.89;100.00;95926.09;5006944;28;20049;-65
2021/08/26 06:18:55;;;;;;;13.32;8.68;;;;;;;17.89;100.00;95934.09;4996201;28;20742;-65
2021/08/26 06:21:23;;;;;;;15.38;8.98;;;;;;;18.08;100.00;95916.50;5006094;28;20084;-66
2021/08/26 06:23:51;;;;;;;13.02;9.05;;;;;;;18.67;100.00;95920.97;5002390;28;20085;-66
2021/08/26 06:26:19;;;;;;;15.65;8.55;;;;;;;18.21;100.00;95925.31;5005844;28;20096;-66
2021/08/26 06:28:48;;;;;;;14.90;8.98;;;;;;;18.31;100.00;95932.91;5005730;28;20061;-65
2021/08/26 06:31:16;;;;;;;14.57;8.85;;;;;;;18.36;100.00;95926.94;5009358;28;20054;-65
2021/08/26 06:33:46;;;;;;;15.05;9.20;;;;;;;18.21;100.00;95927.19;5008532;28;20077;-66
2021/08/26 06:36:14;;;;;;;14.60;8.55;;;;;;;18.79;100.00;95926.50;5003271;28;20070;-65
2021/08/26 06:38:43;;;;;;;13.15;8.32;;;;;;;18.88;100.00;95923.41;5009562;28;20077;-65
2021/08/26 06:41:11;;;;;;;13.75;8.55;;;;;;;18.81;100.00;95930.63;5008291;28;20077;-65
2021/08/26 06:43:39;;;;;;;13.82;9.00;;;;;;;18.40;100.00;95933.50;5007482;28;20072;-65
2021/08/26 06:46:07;;;;;;;11.93;8.30;;;;;;;18.48;100.00;95936.81;5007877;28;20080;-65
2021/08/26 06:48:36;;;;;;;12.88;9.00;;;;;;;18.58;100.00;95939.06;5007487;28;20588;-65
2021/08/26 06:51:06;;;;;;;12.48;8.30;;;;;;;18.81;100.00;95940.47;5003190;28;20073;-67
2021/08/26 06:53:34;;;;;;;13.00;7.88;;;;;;;18.32;100.00;95934.56;5007716;28;20872;-63
2021/08/26 06:56:03;;;;;;;13.90;8.82;;;;;;;19.17;100.00;95930.09;5007314;28;20077;-65
2021/08/26 06:58:31;;;;;;;13.93;9.13;;;;;;;19.03;100.00;95925.84;5004571;28;20076;-66
2021/08/26 07:01:00;;;;;;;13.40;8.73;;;;;;;18.87;100.00;95932.44;5004623;28;20393;-66
2021/08/26 07:03:28;;;;;;;12.60;8.60;;;;;;;19.02;100.00;95929.53;5009381;28;20066;-66
2021/08/26 07:05:57;;;;;;;18.00;9.02;;;;;;;18.92;100.00;95929.97;5004255;28;20062;-65
2021/08/26 07:08:27;;;;;;;12.15;8.73;;;;;;;19.23;100.00;95924.94;5026066;28;20439;-66
2021/08/26 07:10:55;;;;;;;15.02;8.80;;;;;;;19.05;100.00;95936.31;5011412;28;20066;-65
2021/08/26 07:13:23;;;;;;;16.58;9.10;;;;;;;18.71;100.00;95928.38;5008528;28;20526;-67
2021/08/26 07:15:52;;;;;;;12.82;8.60;;;;;;;18.52;100.00;95926.53;5004072;28;20070;-66
2021/08/26 07:18:20;;;;;;;13.75;8.43;;;;;;;19.33;100.00;95936.00;5005523;28;20354;-64
2021/08/26 07:20:49;;;;;;;15.40;8.60;;;;;;;19.04;100.00;95930.16;5006501;28;20074;-66
2021/08/26 07:23:17;;;;;;;13.52;9.52;;;;;;;19.39;100.00;95925.28;5006386;28;20080;-65
2021/08/26 07:25:47;;;;;;;14.90;8.50;;;;;;;18.79;100.00;95930.00;5005865;28;20076;-66
2021/08/26 07:28:15;;;;;;;13.80;9.18;;;;;;;19.21;100.00;95919.81;5006304;28;20594;-66
2021/08/26 07:30:43;;;;;;;12.88;8.93;;;;;;;18.89;100.00;95921.53;5003189;28;20070;-65
2021/08/26 07:33:12;;;;;;;15.82;9.38;;;;;;;18.86;100.00;95917.47;5005321;28;20140;-66
2021/08/26 07:35:40;;;;;;;15.90;9.55;;;;;;;19.42;100.00;95922.19;5001787;28;20491;-65
2021/08/26 07:38:08;;;;;;;15.18;9.80;;;;;;;19.47;100.00;95918.03;5008674;28;20108;-65
2021/08/26 07:40:37;;;;;;;14.18;9.27;;;;;;;19.49;100.00;95919.47;5005340;28;20041;-66
2021/08/26 07:43:06;;;;;;;17.00;10.05;;;;;;;19.49;100.00;95919.47;5004791;28;20073;-66
2021/08/26 07:45:35;;;;;;;15.70;10.07;;;;;;;20.05;100.00;95916.06;5007248;28;20483;-65
2021/08/26 07:48:04;;;;;;;15.23;10.15;;;;;;;20.38;100.00;95914.97;5010211;28;20085;-65
2021/08/26 07:50:32;;;;;;;19.13;10.60;;;;;;;20.13;100.00;95914.97;5011424;28;20096;-67
2021/08/26 07:53:00;;;;;;;17.90;10.32;;;;;;;19.89;100.00;95919.28;5007458;28;21468;-66
2021/08/26 07:55:29;;;;;;;15.15;10.50;;;;;;;19.95;100.00;95914.91;5015386;28;20076;-65
2021/08/26 07:57:58;;;;;;;17.05;10.43;;;;;;;20.43;100.00;95920.47;5006256;28;20076;-66
2021/08/26 08:00:28;;;;;;;15.75;10.50;;;;;;;20.06;100.00;95925.75;5005244;28;20079;-66
2021/08/26 08:02:57;;;;;;;17.00;11.13;;;;;;;19.96;100.00;95920.06;5006297;28;20108;-67
2021/08/26 08:05:25;;;;;;;16.38;10.73;;;;;;;19.44;100.00;95924.63;5009650;28;20472;-65
2021/08/26 08:07:58;;;;;;;20.90;11.50;;;;;;;19.18;100.00;95920.22;5003518;28;20351;-65
2021/08/26 08:10:27;;;;;;;17.70;11.32;;;;;;;19.46;100.00;95925.25;5015054;28;20562;-65
2021/08/26 08:12:55;;;;;;;13.73;9.40;;;;;;;18.77;100.00;95920.56;5006576;28;20073;-65
2021/08/26 08:15:23;;;;;;;17.25;11.18;;;;;;;19.47;100.00;95926.88;5004530;28;20069;-66
2021/08/26 08:17:53;;;;;;;17.58;11.55;;;;;;;19.56;100.00;95928.28;5004324;28;20086;-66
2021/08/26 08:20:22;;;;;;;17.50;11.60;;;;;;;18.73;100.00;95931.66;5008930;28;20080;-67
2021/08/26 08:22:50;;;;;;;17.55;11.75;;;;;;;19.14;100.00;95932.38;5005225;28;20400;-66
2021/08/26 08:25:19;;;;;;;16.35;11.75;;;;;;;19.26;100.00;95933.34;5002267;28;20452;-65
2021/08/26 08:27:47;;;;;;;17.45;11.30;;;;;;;19.83;100.00;95930.84;4989505;28;20054;-66
2021/08/26 08:30:16;;;;;;;19.50;11.93;;;;;;;19.84;100.00;95922.59;4993420;28;20072;-66
2021/08/26 08:32:44;;;;;;;16.70;10.82;;;;;;;18.73;100.00;95920.97;5007199;28;20447;-66
2021/08/26 08:35:14;;;;;;;16.40;11.18;;;;;;;19.14;100.00;95930.53;5008483;28;20078;-67
2021/08/26 08:37:42;;;;;;;20.52;13.02;;;;;;;19.55;100.00;95926.66;5005550;28;20076;-66
2021/08/26 08:40:11;;;;;;;19.73;12.35;;;;;;;19.84;100.00;95930.59;5004765;28;20069;-67
2021/08/26 08:42:40;;;;;;;20.38;12.95;;;;;;;19.96;100.00;95940.63;5004980;28;20073;-66
2021/08/26 08:45:09;;;;;;;20.55;12.18;;;;;;;18.91;100.00;95933.66;4999943;28;20058;-66
2021/08/26 08:47:38;;;;;;;30.52;13.98;;;;;;;18.55;100.00;95927.94;5003577;28;20094;-66
2021/08/26 08:50:07;;;;;;;19.20;13.82;;;;;;;19.23;100.00;95925.75;5012205;28;20088;-66
2021/08/26 08:52:38;;;;;;;20.33;13.37;;;;;;;18.97;100.00;95922.16;5008579;28;20061;-66
2021/08/26 08:55:09;;;;;;;19.70;13.13;;;;;;;19.34;100.00;95913.56;5012335;28;20066;-65
2021/08/26 08:57:37;;;;;;;20.83;13.68;;;;;;;19.34;100.00;95919.75;4998007;28;20429;-66
2021/08/26 09:00:08;;;;;;;19.15;12.45;;;;;;;18.74;100.00;95925.28;4988904;28;20061;-66
2021/08/26 09:02:36;;;;;;;;;;;;;;;19.48;100.00;95920.50;5010063;28;20088;-65
2021/08/26 09:05:05;;;;;;;18.10;13.80;;;;;;;18.99;100.00;95921.94;4987023;28;19984;-68
2021/08/26 09:07:35;;;;;;;23.45;14.32;;;;;;;19.21;100.00;95914.47;5003127;28;20077;-66
2021/08/26 09:10:06;;;;;;;22.97;15.67;;;;;;;19.15;100.00;95916.13;5002349;28;20058;-66
2021/08/26 09:12:49;;;;;;;22.00;12.70;;;;;;;18.88;100.00;95911.91;5005621;28;20467;-67
2021/08/26 09:15:19;;;;;;;21.70;14.60;;;;;;;19.48;100.00;95923.19;5004300;28;20065;-65
2021/08/26 09:17:48;;;;;;;21.63;14.63;;;;;;;19.75;100.00;95923.06;5006511;28;20080;-65
2021/08/26 09:20:18;;;;;;;24.33;15.47;;;;;;;19.29;100.00;95924.09;5011053;28;20453;-66
2021/08/26 09:22:48;;;;;;;23.55;16.40;;;;;;;19.89;100.00;95927.31;4999465;28;20484;-66
2021/08/26 09:25:25;;;;;;;24.40;15.80;;;;;;;19.27;100.00;95935.00;5006771;28;20472;-65
2021/08/26 09:27:54;;;;;;;23.88;15.57;;;;;;;19.30;100.00;95934.56;5003218;28;20516;-66
2021/08/26 09:30:23;;;;;;;26.05;16.40;;;;;;;19.11;100.00;95924.78;5005236;28;20173;-66
2021/08/26 09:33:01;;;;;;;25.03;16.40;;;;;;;18.82;100.00;95920.75;5009176;28;20418;-66
2021/08/26 09:35:31;;;;;;;22.85;15.88;;;;;;;19.00;100.00;95928.13;5002415;28;20515;-67
2021/08/26 09:38:02;;;;;;;23.27;16.90;;;;;;;19.60;100.00;95937.50;4983978;28;20338;-65
2021/08/26 09:40:34;;;;;;;;;;;;;;;19.00;100.00;95928.94;4984426;28;20567;-66
2021/08/26 09:43:04;;;;;;;22.55;15.85;;;;;;;19.01;100.00;95930.56;4999123;28;19971;-65
2021/08/26 09:45:33;;;;;;;;;;;;;;;19.28;100.00;95922.47;5013096;28;20057;-66
2021/08/26 09:48:07;;;;;;;26.27;17.08;;;;;;;19.64;100.00;95928.03;5003606;28;19952;-66
2021/08/26 09:50:40;;;;;;;25.35;17.35;;;;;;;19.87;100.00;95932.84;5008022;28;20054;-66
2021/08/26 09:53:09;;;;;;;25.67;18.67;;;;;;;20.12;100.00;95930.22;5002672;28;20081;-66
2021/08/26 09:55:55;;;;;;;26.88;18.70;;;;;;;19.94;100.00;95932.81;5002580;28;20521;-66
2021/08/26 09:58:24;;;;;;;27.77;19.33;;;;;;;20.11;100.00;95933.94;4999363;28;20100;-65
2021/08/26 10:01:09;;;;;;;27.15;19.10;;;;;;;19.50;100.00;95931.81;5005220;28;20066;-66
2021/08/26 10:03:37;;;;;;;28.10;18.15;;;;;;;19.86;100.00;95928.56;5002097;28;20070;-65
2021/08/26 10:06:06;;;;;;;25.63;17.80;;;;;;;19.94;100.00;95934.69;5007344;28;20068;-65
2021/08/26 10:08:52;;;;;;;31.83;20.02;;;;;;;20.04;100.00;95930.47;4994151;28;20061;-66
2021/08/26 10:11:22;;;;;;;28.48;18.00;;;;;;;19.41;100.00;95930.44;4988031;28;20075;-65
2021/08/26 10:13:51;;;;;;;24.20;17.52;;;;;;;19.16;100.00;95923.09;5003400;28;20069;-65
2021/08/26 10:16:20;;;;;;;24.35;16.20;;;;;;;19.60;100.00;95924.13;5003777;28;20153;-66
2021/08/26 10:18:52;;;;;;;22.90;15.20;;;;;;;19.31;100.00;95930.06;4999002;28;20066;-65
2021/08/26 10:21:21;;;;;;;21.90;14.95;;;;;;;19.37;100.00;95929.19;5006397;28;20080;-65
2021/08/26 10:23:49;;;;;;;23.55;15.68;;;;;;;19.11;100.00;95922.94;5002617;28;20081;-65
2021/08/26 10:26:19;;;;;;;22.08;14.55;;;;;;;18.77;100.00;95928.56;5005121;28;20085;-66
2021/08/26 10:28:49;;;;;;;22.58;14.32;;;;;;;18.72;100.00;95921.19;5009891;28;20621;-66
2021/08/26 10:31:25;;;;;;;26.70;15.60;;;;;;;18.39;100.00;95924.69;5006259;28;20566;-65
2021/08/26 10:34:09;;;;;;;25.80;16.48;;;;;;;18.81;100.00;95927.94;5002624;28;20562;-65
2021/08/26 10:36:47;;;;;;;25.95;17.35;;;;;;;18.48;100.00;95926.13;5002256;28;20081;-66
2021/08/26 10:39:26;;;;;;;28.02;18.70;;;;;;;18.27;100.00;95937.00;5002480;28;20069;-66
2021/08/26 10:41:55;;;;;;;28.73;17.63;;;;;;;18.26;100.00;95925.50;5005210;28;20073;-65
2021/08/26 10:45:01;;;;;;;27.48;14.20;;;;;;;18.05;100.00;95928.38;5001367;28;20096;-65
2021/08/26 10:48:07;;;;;;;17.67;10.68;;;;;;;17.96;100.00;95932.25;5000589;28;20295;-66
2021/08/26 10:50:38;;;;;;;14.73;9.65;;;;;;;17.33;100.00;95932.50;4997760;28;20128;-66
2021/08/26 10:53:10;;;;;;;17.58;11.30;;;;;;;17.41;100.00;95936.84;5006812;28;20085;-65
2021/08/26 10:55:40;;;;;;;19.48;10.50;;;;;;;17.20;100.00;95935.13;5003639;28;20057;-66
2021/08/26 10:58:37;;;;;;;23.33;14.57;;;;;;;17.71;100.00;95929.34;5003155;28;20077;-65
2021/08/26 11:01:12;;;;;;;23.13;14.32;;;;;;;17.43;100.00;95924.13;5000703;28;20084;-66
2021/08/26 11:03:57;;;;;;;20.02;11.93;;;;;;;17.33;100.00;95925.34;5003092;28;20097;-66
2021/08/26 11:06:39;;;;;;;23.25;15.05;;;;;;;17.33;100.00;95927.19;5007808;28;20069;-66
2021/08/26 11:09:23;;;;;;;25.38;16.95;;;;;;;17.56;100.00;95943.66;5004266;28;20069;-66
2021/08/26 11:11:57;;;;;;;24.08;15.55;;;;;;;17.32;100.00;95944.19;4998896;28;20082;-65
2021/08/26 11:14:27;;;;;;;29.20;18.98;;;;;;;17.60;100.00;95938.75;5001288;28;20089;-65
2021/08/26 11:16:59;;;;;;;30.67;20.05;;;;;;;17.46;100.00;95940.56;5005130;28;20069;-66
2021/08/26 11:19:31;;;;;;;30.13;20.17;;;;;;;17.44;100.00;95939.91;5006101;28;20074;-66
2021/08/26 11:22:01;;;;;;;32.97;22.38;;;;;;;17.87;100.00;95941.50;5002400;28;20073;-66
2021/08/26 11:24:51;;;;;;;32.42;22.00;;;;;;;17.84;100.00;95940.06;5006726;28;20469;-67
2021/08/26 11:27:21;;;;;;;34.08;22.33;;;;;;;17.70;100.00;95952.50;5008457;28;20065;-66
2021/08/26 11:29:51;;;;;;;33.63;21.20;;;;;;;17.96;100.00;95932.25;5012391;28;20085;-65
2021/08/26 11:32:23;;;;;;;32.90;20.80;;;;;;;17.45;100.00;95940.78;5006273;28;20081;-66
2021/08/26 11:34:55;;;;;;;30.50;21.65;;;;;;;17.95;100.00;95949.31;5007388;28;20074;-66
2021/08/26 11:37:25;;;;;;;31.23;20.92;;;;;;;17.80;100.00;95949.50;5007320;28;20524;-64